sensor_id;sensor_type;location;lat;lon;timestamp;temperature;humidity
21807;DHT22;11065;50.786;7.840;2022-07-03T00:00:05;19.90;42.30
21807;DHT22;11065;50.786;7.840;2022-07-03T00:02:37;19.90;42.40
21807;DHT22;11065;50.786;7.840;2022-07-03T00:05:04;19.80;42.40
21807;DHT22;11065;50.786;7.840;2022-07-03T00:07:32;19.80;42.50
21807;DHT22;11065;50.786;7.840;2022-07-03T00:09:58;19.80;42.70
21807;DHT22;11065;50.786;7.840;2022-07-03T00:12:25;19.70;42.90
21807;DHT22;11065;50.786;7.840;2022-07-03T00:14:52;19.70;42.90
21807;DHT22;11065;50.786;7.840;2022-07-03T00:17:19;19.60;43.00
21807;DHT22;11065;50.786;7.840;2022-07-03T00:19:46;19.60;43.00
21807;DHT22;11065;50.786;7.840;2022-07-03T00:22:13;19.60;43.10
21807;DHT22;11065;50.786;7.840;2022-07-03T00:24:44;19.50;43.10
21807;DHT22;11065;50.786;7.840;2022-07-03T00:27:15;19.50;43.30
21807;DHT22;11065;50.786;7.840;2022-07-03T00:29:44;19.50;43.30
21807;DHT22;11065;50.786;7.840;2022-07-03T00:32:20;19.40;43.40
21807;DHT22;11065;50.786;7.840;2022-07-03T00:34:52;19.40;43.80
21807;DHT22;11065;50.786;7.840;2022-07-03T00:37:20;19.30;43.50
21807;DHT22;11065;50.786;7.840;2022-07-03T00:39:47;19.30;43.50
21807;DHT22;11065;50.786;7.840;2022-07-03T00:42:17;19.20;43.40
21807;DHT22;11065;50.786;7.840;2022-07-03T00:44:54;19.30;43.60
21807;DHT22;11065;50.786;7.840;2022-07-03T00:47:24;19.30;44.10
21807;DHT22;11065;50.786;7.840;2022-07-03T00:49:55;19.20;43.80
21807;DHT22;11065;50.786;7.840;2022-07-03T00:52:22;19.10;43.90
21807;DHT22;11065;50.786;7.840;2022-07-03T00:55:00;19.10;43.90
21807;DHT22;11065;50.786;7.840;2022-07-03T00:57:29;19.00;44.30
21807;DHT22;11065;50.786;7.840;2022-07-03T00:59:57;19.00;44.00
21807;DHT22;11065;50.786;7.840;2022-07-03T01:05:27;18.90;44.70
21807;DHT22;11065;50.786;7.840;2022-07-03T01:16:20;18.70;44.60
21807;DHT22;11065;50.786;7.840;2022-07-03T01:24:43;18.60;44.20
21807;DHT22;11065;50.786;7.840;2022-07-03T01:27:16;18.60;44.30
21807;DHT22;11065;50.786;7.840;2022-07-03T01:32:28;18.50;44.70
21807;DHT22;11065;50.786;7.840;2022-07-03T01:35:00;18.60;44.70
21807;DHT22;11065;50.786;7.840;2022-07-03T01:37:30;18.40;44.60
21807;DHT22;11065;50.786;7.840;2022-07-03T01:40:03;18.50;44.80
21807;DHT22;11065;50.786;7.840;2022-07-03T01:42:33;18.40;44.80
21807;DHT22;11065;50.786;7.840;2022-07-03T01:45:00;18.30;44.90
21807;DHT22;11065;50.786;7.840;2022-07-03T01:47:29;18.30;44.90
21807;DHT22;11065;50.786;7.840;2022-07-03T01:49:56;18.20;45.00
21807;DHT22;11065;50.786;7.840;2022-07-03T01:52:24;18.20;45.00
21807;DHT22;11065;50.786;7.840;2022-07-03T01:55:13;18.20;45.10
21807;DHT22;11065;50.786;7.840;2022-07-03T01:57:49;18.20;45.10
21807;DHT22;11065;50.786;7.840;2022-07-03T02:00:19;18.10;45.30
21807;DHT22;11065;50.786;7.840;2022-07-03T02:05:42;18.00;45.60
21807;DHT22;11065;50.786;7.840;2022-07-03T02:08:26;18.00;46.00
21807;DHT22;11065;50.786;7.840;2022-07-03T02:14:24;17.90;45.80
21807;DHT22;11065;50.786;7.840;2022-07-03T02:16:25;17.90;45.50
21807;DHT22;11065;50.786;7.840;2022-07-03T02:18:58;17.80;45.40
21807;DHT22;11065;50.786;7.840;2022-07-03T02:21:28;17.80;45.70
21807;DHT22;11065;50.786;7.840;2022-07-03T02:26:41;17.70;45.90
21807;DHT22;11065;50.786;7.840;2022-07-03T02:29:12;17.70;45.70
21807;DHT22;11065;50.786;7.840;2022-07-03T02:31:45;17.80;45.90
21807;DHT22;11065;50.786;7.840;2022-07-03T02:34:17;17.60;46.00
21807;DHT22;11065;50.786;7.840;2022-07-03T02:36:47;17.60;46.00
21807;DHT22;11065;50.786;7.840;2022-07-03T02:39:38;17.50;46.00
21807;DHT22;11065;50.786;7.840;2022-07-03T02:42:14;17.50;46.60
21807;DHT22;11065;50.786;7.840;2022-07-03T02:44:46;17.50;46.20
21807;DHT22;11065;50.786;7.840;2022-07-03T02:47:35;17.60;46.10
21807;DHT22;11065;50.786;7.840;2022-07-03T02:50:22;17.40;46.70
21807;DHT22;11065;50.786;7.840;2022-07-03T02:53:03;17.40;46.80
21807;DHT22;11065;50.786;7.840;2022-07-03T02:55:44;17.30;46.60
21807;DHT22;11065;50.786;7.840;2022-07-03T03:03:55;17.20;46.80
21807;DHT22;11065;50.786;7.840;2022-07-03T03:06:26;17.20;46.80
21807;DHT22;11065;50.786;7.840;2022-07-03T03:09:00;17.20;46.40
21807;DHT22;11065;50.786;7.840;2022-07-03T03:11:32;17.20;46.80
21807;DHT22;11065;50.786;7.840;2022-07-03T03:14:06;17.10;46.60
21807;DHT22;11065;50.786;7.840;2022-07-03T03:16:36;17.10;46.70
21807;DHT22;11065;50.786;7.840;2022-07-03T03:19:09;17.10;46.80
21807;DHT22;11065;50.786;7.840;2022-07-03T03:21:56;17.10;47.20
21807;DHT22;11065;50.786;7.840;2022-07-03T03:24:24;17.00;47.40
21807;DHT22;11065;50.786;7.840;2022-07-03T03:26:51;17.00;46.90
21807;DHT22;11065;50.786;7.840;2022-07-03T03:29:18;17.00;47.00
21807;DHT22;11065;50.786;7.840;2022-07-03T03:31:45;16.90;47.00
21807;DHT22;11065;50.786;7.840;2022-07-03T03:34:12;17.00;47.20
21807;DHT22;11065;50.786;7.840;2022-07-03T03:36:40;16.90;47.20
21807;DHT22;11065;50.786;7.840;2022-07-03T03:39:08;16.90;47.20
21807;DHT22;11065;50.786;7.840;2022-07-03T03:41:35;16.80;47.30
21807;DHT22;11065;50.786;7.840;2022-07-03T03:44:02;16.80;47.50
21807;DHT22;11065;50.786;7.840;2022-07-03T03:46:29;16.80;47.50
21807;DHT22;11065;50.786;7.840;2022-07-03T03:48:56;16.80;47.60
21807;DHT22;11065;50.786;7.840;2022-07-03T03:51:23;16.90;47.70
21807;DHT22;11065;50.786;7.840;2022-07-03T03:53:50;16.80;47.60
21807;DHT22;11065;50.786;7.840;2022-07-03T03:56:18;16.90;47.80
21807;DHT22;11065;50.786;7.840;2022-07-03T03:58:45;16.70;47.70
21807;DHT22;11065;50.786;7.840;2022-07-03T04:01:12;16.70;47.80
21807;DHT22;11065;50.786;7.840;2022-07-03T04:03:39;16.70;47.80
21807;DHT22;11065;50.786;7.840;2022-07-03T04:06:07;16.70;47.90
21807;DHT22;11065;50.786;7.840;2022-07-03T04:08:34;16.70;47.90
21807;DHT22;11065;50.786;7.840;2022-07-03T04:11:01;16.70;48.00
21807;DHT22;11065;50.786;7.840;2022-07-03T04:13:29;16.70;48.10
21807;DHT22;11065;50.786;7.840;2022-07-03T04:15:55;16.70;48.20
21807;DHT22;11065;50.786;7.840;2022-07-03T04:18:23;16.70;48.20
21807;DHT22;11065;50.786;7.840;2022-07-03T04:20:53;16.80;48.30
21807;DHT22;11065;50.786;7.840;2022-07-03T04:23:20;16.80;48.30
21807;DHT22;11065;50.786;7.840;2022-07-03T04:25:47;16.70;48.40
21807;DHT22;11065;50.786;7.840;2022-07-03T04:28:14;16.70;48.90
21807;DHT22;11065;50.786;7.840;2022-07-03T04:30:49;16.70;48.50
21807;DHT22;11065;50.786;7.840;2022-07-03T04:33:16;16.70;48.50
21807;DHT22;11065;50.786;7.840;2022-07-03T04:35:43;16.70;48.60
21807;DHT22;11065;50.786;7.840;2022-07-03T04:38:10;16.80;49.10
21807;DHT22;11065;50.786;7.840;2022-07-03T04:40:37;16.80;48.80
21807;DHT22;11065;50.786;7.840;2022-07-03T04:43:03;16.90;48.90
21807;DHT22;11065;50.786;7.840;2022-07-03T04:45:30;16.80;48.90
21807;DHT22;11065;50.786;7.840;2022-07-03T04:47:57;16.80;49.00
21807;DHT22;11065;50.786;7.840;2022-07-03T04:50:24;16.80;49.00
21807;DHT22;11065;50.786;7.840;2022-07-03T04:52:51;16.80;49.10
21807;DHT22;11065;50.786;7.840;2022-07-03T04:55:18;16.90;49.20
21807;DHT22;11065;50.786;7.840;2022-07-03T04:57:45;17.00;49.40
21807;DHT22;11065;50.786;7.840;2022-07-03T05:00:12;17.00;49.60
21807;DHT22;11065;50.786;7.840;2022-07-03T05:02:39;17.00;49.80
21807;DHT22;11065;50.786;7.840;2022-07-03T05:05:06;17.10;49.80
21807;DHT22;11065;50.786;7.840;2022-07-03T05:07:33;17.00;49.70
21807;DHT22;11065;50.786;7.840;2022-07-03T05:10:00;17.20;49.70
21807;DHT22;11065;50.786;7.840;2022-07-03T05:12:27;17.10;49.70
21807;DHT22;11065;50.786;7.840;2022-07-03T05:14:54;17.20;49.70
21807;DHT22;11065;50.786;7.840;2022-07-03T05:17:20;17.20;49.60
21807;DHT22;11065;50.786;7.840;2022-07-03T05:19:47;17.20;49.60
21807;DHT22;11065;50.786;7.840;2022-07-03T05:22:14;17.30;49.60
21807;DHT22;11065;50.786;7.840;2022-07-03T05:24:43;17.30;49.60
21807;DHT22;11065;50.786;7.840;2022-07-03T05:27:10;17.30;49.60
21807;DHT22;11065;50.786;7.840;2022-07-03T05:29:37;17.30;49.60
21807;DHT22;11065;50.786;7.840;2022-07-03T05:32:05;17.30;49.60
21807;DHT22;11065;50.786;7.840;2022-07-03T05:34:32;17.30;49.60
21807;DHT22;11065;50.786;7.840;2022-07-03T05:36:59;17.30;49.70
21807;DHT22;11065;50.786;7.840;2022-07-03T05:39:25;17.40;49.70
21807;DHT22;11065;50.786;7.840;2022-07-03T05:41:58;17.50;49.80
21807;DHT22;11065;50.786;7.840;2022-07-03T05:44:25;17.50;49.80
21807;DHT22;11065;50.786;7.840;2022-07-03T05:46:52;17.50;49.80
21807;DHT22;11065;50.786;7.840;2022-07-03T05:49:19;17.60;49.90
21807;DHT22;11065;50.786;7.840;2022-07-03T05:51:46;17.60;49.90
21807;DHT22;11065;50.786;7.840;2022-07-03T05:54:13;17.60;49.90
21807;DHT22;11065;50.786;7.840;2022-07-03T05:56:40;17.70;50.00
21807;DHT22;11065;50.786;7.840;2022-07-03T05:59:07;17.70;50.00
21807;DHT22;11065;50.786;7.840;2022-07-03T06:01:34;17.70;50.10
21807;DHT22;11065;50.786;7.840;2022-07-03T06:04:01;17.80;50.20
21807;DHT22;11065;50.786;7.840;2022-07-03T06:06:29;17.80;50.10
21807;DHT22;11065;50.786;7.840;2022-07-03T06:08:55;17.90;50.20
21807;DHT22;11065;50.786;7.840;2022-07-03T06:11:22;18.00;50.10
21807;DHT22;11065;50.786;7.840;2022-07-03T06:13:49;18.00;50.10
21807;DHT22;11065;50.786;7.840;2022-07-03T06:16:16;18.00;50.10
21807;DHT22;11065;50.786;7.840;2022-07-03T06:18:43;18.10;50.20
21807;DHT22;11065;50.786;7.840;2022-07-03T06:21:10;18.10;50.10
21807;DHT22;11065;50.786;7.840;2022-07-03T06:23:37;18.30;50.20
21807;DHT22;11065;50.786;7.840;2022-07-03T06:26:15;18.30;50.20
21807;DHT22;11065;50.786;7.840;2022-07-03T06:28:43;18.40;50.30
21807;DHT22;11065;50.786;7.840;2022-07-03T06:31:10;18.40;50.20
21807;DHT22;11065;50.786;7.840;2022-07-03T06:33:37;18.40;50.20
21807;DHT22;11065;50.786;7.840;2022-07-03T06:36:04;18.50;50.20
21807;DHT22;11065;50.786;7.840;2022-07-03T06:38:31;18.60;50.20
21807;DHT22;11065;50.786;7.840;2022-07-03T06:40:58;18.60;50.60
21807;DHT22;11065;50.786;7.840;2022-07-03T06:43:25;18.70;50.30
21807;DHT22;11065;50.786;7.840;2022-07-03T06:45:52;18.70;50.40
21807;DHT22;11065;50.786;7.840;2022-07-03T06:48:19;18.90;50.50
21807;DHT22;11065;50.786;7.840;2022-07-03T06:50:46;18.90;50.30
21807;DHT22;11065;50.786;7.840;2022-07-03T06:53:13;19.00;50.40
21807;DHT22;11065;50.786;7.840;2022-07-03T06:55:40;19.10;50.40
21807;DHT22;11065;50.786;7.840;2022-07-03T06:58:07;19.20;50.40
21807;DHT22;11065;50.786;7.840;2022-07-03T07:00:34;19.20;50.40
21807;DHT22;11065;50.786;7.840;2022-07-03T07:03:01;19.30;50.40
21807;DHT22;11065;50.786;7.840;2022-07-03T07:05:28;19.40;50.70
21807;DHT22;11065;50.786;7.840;2022-07-03T07:07:55;19.50;50.30
21807;DHT22;11065;50.786;7.840;2022-07-03T07:10:21;19.50;50.30
21807;DHT22;11065;50.786;7.840;2022-07-03T07:12:48;19.60;50.40
21807;DHT22;11065;50.786;7.840;2022-07-03T07:15:15;19.70;50.20
21807;DHT22;11065;50.786;7.840;2022-07-03T07:17:42;19.70;50.10
21807;DHT22;11065;50.786;7.840;2022-07-03T07:20:10;19.80;50.10
21807;DHT22;11065;50.786;7.840;2022-07-03T07:22:37;19.90;50.00
21807;DHT22;11065;50.786;7.840;2022-07-03T07:25:04;19.90;49.90
21807;DHT22;11065;50.786;7.840;2022-07-03T07:27:31;20.00;49.90
21807;DHT22;11065;50.786;7.840;2022-07-03T07:29:58;20.20;50.00
21807;DHT22;11065;50.786;7.840;2022-07-03T07:32:24;20.20;49.90
21807;DHT22;11065;50.786;7.840;2022-07-03T07:34:51;20.30;50.30
21807;DHT22;11065;50.786;7.840;2022-07-03T07:37:18;20.30;49.70
21807;DHT22;11065;50.786;7.840;2022-07-03T07:39:45;20.50;50.10
21807;DHT22;11065;50.786;7.840;2022-07-03T07:42:12;20.60;49.70
21807;DHT22;11065;50.786;7.840;2022-07-03T07:44:39;20.70;49.70
21807;DHT22;11065;50.786;7.840;2022-07-03T07:47:06;20.80;49.70
21807;DHT22;11065;50.786;7.840;2022-07-03T07:49:33;20.80;49.70
21807;DHT22;11065;50.786;7.840;2022-07-03T07:52:00;20.90;49.60
21807;DHT22;11065;50.786;7.840;2022-07-03T07:54:27;21.00;49.40
21807;DHT22;11065;50.786;7.840;2022-07-03T07:56:55;21.10;49.30
21807;DHT22;11065;50.786;7.840;2022-07-03T07:59:22;21.30;49.30
21807;DHT22;11065;50.786;7.840;2022-07-03T08:01:49;21.40;49.20
21807;DHT22;11065;50.786;7.840;2022-07-03T08:04:34;21.60;49.20
21807;DHT22;11065;50.786;7.840;2022-07-03T08:07:19;21.60;49.10
21807;DHT22;11065;50.786;7.840;2022-07-03T08:09:46;21.70;48.90
21807;DHT22;11065;50.786;7.840;2022-07-03T08:12:14;21.80;48.90
21807;DHT22;11065;50.786;7.840;2022-07-03T08:14:40;21.90;48.70
21807;DHT22;11065;50.786;7.840;2022-07-03T08:17:07;22.00;48.50
21807;DHT22;11065;50.786;7.840;2022-07-03T08:19:34;22.10;48.20
21807;DHT22;11065;50.786;7.840;2022-07-03T08:22:01;22.30;48.30
21807;DHT22;11065;50.786;7.840;2022-07-03T08:24:28;22.40;48.20
21807;DHT22;11065;50.786;7.840;2022-07-03T08:26:55;22.50;48.10
21807;DHT22;11065;50.786;7.840;2022-07-03T08:29:22;22.60;47.90
21807;DHT22;11065;50.786;7.840;2022-07-03T08:31:49;22.80;47.80
21807;DHT22;11065;50.786;7.840;2022-07-03T08:34:16;22.90;47.60
21807;DHT22;11065;50.786;7.840;2022-07-03T08:36:43;23.00;47.20
21807;DHT22;11065;50.786;7.840;2022-07-03T08:39:10;23.10;47.00
21807;DHT22;11065;50.786;7.840;2022-07-03T08:41:39;23.20;46.90
21807;DHT22;11065;50.786;7.840;2022-07-03T08:44:08;23.40;46.60
21807;DHT22;11065;50.786;7.840;2022-07-03T08:46:36;23.40;46.40
21807;DHT22;11065;50.786;7.840;2022-07-03T08:49:04;23.60;46.10
21807;DHT22;11065;50.786;7.840;2022-07-03T08:51:32;23.70;46.20
21807;DHT22;11065;50.786;7.840;2022-07-03T08:54:01;23.80;46.00
21807;DHT22;11065;50.786;7.840;2022-07-03T08:56:28;23.90;45.70
21807;DHT22;11065;50.786;7.840;2022-07-03T08:58:58;24.10;45.60
21807;DHT22;11065;50.786;7.840;2022-07-03T09:01:28;24.10;45.30
21807;DHT22;11065;50.786;7.840;2022-07-03T09:03:56;24.30;45.40
21807;DHT22;11065;50.786;7.840;2022-07-03T09:06:24;24.40;45.20
21807;DHT22;11065;50.786;7.840;2022-07-03T09:08:53;24.60;45.10
21807;DHT22;11065;50.786;7.840;2022-07-03T09:11:21;24.60;44.70
21807;DHT22;11065;50.786;7.840;2022-07-03T09:13:48;24.70;44.50
21807;DHT22;11065;50.786;7.840;2022-07-03T09:16:20;24.90;44.00
21807;DHT22;11065;50.786;7.840;2022-07-03T09:18:47;24.90;43.40
21807;DHT22;11065;50.786;7.840;2022-07-03T09:21:16;25.10;43.50
21807;DHT22;11065;50.786;7.840;2022-07-03T09:23:44;25.30;44.00
21807;DHT22;11065;50.786;7.840;2022-07-03T09:26:14;25.50;43.90
21807;DHT22;11065;50.786;7.840;2022-07-03T09:28:50;25.70;43.90
21807;DHT22;11065;50.786;7.840;2022-07-03T09:31:25;26.00;43.00
21807;DHT22;11065;50.786;7.840;2022-07-03T09:34:05;26.40;43.70
21807;DHT22;11065;50.786;7.840;2022-07-03T09:39:29;27.20;44.10
21807;DHT22;11065;50.786;7.840;2022-07-03T09:44:39;28.40;43.50
21807;DHT22;11065;50.786;7.840;2022-07-03T09:47:15;29.10;43.30
21807;DHT22;11065;50.786;7.840;2022-07-03T09:49:47;29.70;43.60
21807;DHT22;11065;50.786;7.840;2022-07-03T09:52:44;30.40;43.20
21807;DHT22;11065;50.786;7.840;2022-07-03T09:57:58;31.80;41.70
21807;DHT22;11065;50.786;7.840;2022-07-03T10:00:28;32.30;38.70
21807;DHT22;11065;50.786;7.840;2022-07-03T10:03:00;32.50;38.80
21807;DHT22;11065;50.786;7.840;2022-07-03T10:05:31;32.80;38.60
21807;DHT22;11065;50.786;7.840;2022-07-03T10:10:30;33.10;37.10
21807;DHT22;11065;50.786;7.840;2022-07-03T10:12:58;33.20;37.00
21807;DHT22;11065;50.786;7.840;2022-07-03T10:15:26;33.40;36.70
21807;DHT22;11065;50.786;7.840;2022-07-03T10:17:55;33.60;36.20
21807;DHT22;11065;50.786;7.840;2022-07-03T10:22:54;34.20;35.80
21807;DHT22;11065;50.786;7.840;2022-07-03T10:25:22;34.60;35.80
21807;DHT22;11065;50.786;7.840;2022-07-03T10:27:49;35.00;35.50
21807;DHT22;11065;50.786;7.840;2022-07-03T10:30:19;35.60;35.30
21807;DHT22;11065;50.786;7.840;2022-07-03T10:32:50;36.20;34.50
21807;DHT22;11065;50.786;7.840;2022-07-03T10:35:29;36.70;34.40
21807;DHT22;11065;50.786;7.840;2022-07-03T10:38:52;37.20;33.50
21807;DHT22;11065;50.786;7.840;2022-07-03T10:40:59;37.80;32.50
21807;DHT22;11065;50.786;7.840;2022-07-03T10:43:47;38.40;32.90
21807;DHT22;11065;50.786;7.840;2022-07-03T10:46:33;38.80;32.30
21807;DHT22;11065;50.786;7.840;2022-07-03T10:54:16;40.10;30.10
21807;DHT22;11065;50.786;7.840;2022-07-03T11:02:26;41.20;29.50
21807;DHT22;11065;50.786;7.840;2022-07-03T11:07:27;42.00;29.40
21807;DHT22;11065;50.786;7.840;2022-07-03T11:18:18;43.00;27.70
21807;DHT22;11065;50.786;7.840;2022-07-03T11:38:45;42.60;25.40
21807;DHT22;11065;50.786;7.840;2022-07-03T11:41:15;42.30;25.70
21807;DHT22;11065;50.786;7.840;2022-07-03T11:43:53;42.10;25.50
21807;DHT22;11065;50.786;7.840;2022-07-03T11:46:23;41.90;25.30
21807;DHT22;11065;50.786;7.840;2022-07-03T11:49:08;41.90;25.90
21807;DHT22;11065;50.786;7.840;2022-07-03T11:51:36;41.90;25.10
21807;DHT22;11065;50.786;7.840;2022-07-03T11:54:04;41.90;25.70
21807;DHT22;11065;50.786;7.840;2022-07-03T11:56:32;42.00;25.80
21807;DHT22;11065;50.786;7.840;2022-07-03T11:59:01;42.30;25.70
21807;DHT22;11065;50.786;7.840;2022-07-03T12:01:36;42.40;25.60
21807;DHT22;11065;50.786;7.840;2022-07-03T12:04:19;42.40;25.00
21807;DHT22;11065;50.786;7.840;2022-07-03T12:06:56;42.30;25.20
21807;DHT22;11065;50.786;7.840;2022-07-03T12:09:34;42.10;24.80
21807;DHT22;11065;50.786;7.840;2022-07-03T12:12:06;41.80;24.80
21807;DHT22;11065;50.786;7.840;2022-07-03T12:17:12;41.30;24.40
21807;DHT22;11065;50.786;7.840;2022-07-03T12:19:59;41.00;24.40
21807;DHT22;11065;50.786;7.840;2022-07-03T12:22:36;40.40;24.40
21807;DHT22;11065;50.786;7.840;2022-07-03T12:25:13;40.00;24.50
21807;DHT22;11065;50.786;7.840;2022-07-03T12:27:44;39.60;24.80
21807;DHT22;11065;50.786;7.840;2022-07-03T12:30:22;39.30;25.00
21807;DHT22;11065;50.786;7.840;2022-07-03T12:32:54;39.20;24.90
21807;DHT22;11065;50.786;7.840;2022-07-03T12:35:27;39.20;25.30
21807;DHT22;11065;50.786;7.840;2022-07-03T12:37:54;39.10;25.50
21807;DHT22;11065;50.786;7.840;2022-07-03T12:40:20;39.30;25.70
21807;DHT22;11065;50.786;7.840;2022-07-03T12:42:49;39.60;25.80
21807;DHT22;11065;50.786;7.840;2022-07-03T12:45:17;39.90;25.90
21807;DHT22;11065;50.786;7.840;2022-07-03T12:47:45;40.20;25.60
21807;DHT22;11065;50.786;7.840;2022-07-03T12:50:12;40.30;25.30
21807;DHT22;11065;50.786;7.840;2022-07-03T12:52:54;40.20;25.00
21807;DHT22;11065;50.786;7.840;2022-07-03T12:55:30;40.00;24.70
21807;DHT22;11065;50.786;7.840;2022-07-03T12:58:21;39.70;24.60
21807;DHT22;11065;50.786;7.840;2022-07-03T13:01:31;39.50;24.70
21807;DHT22;11065;50.786;7.840;2022-07-03T13:04:04;39.20;24.80
21807;DHT22;11065;50.786;7.840;2022-07-03T13:06:32;39.00;25.00
21807;DHT22;11065;50.786;7.840;2022-07-03T13:09:04;38.90;25.00
21807;DHT22;11065;50.786;7.840;2022-07-03T13:11:32;38.70;25.00
21807;DHT22;11065;50.786;7.840;2022-07-03T13:14:16;38.50;25.00
21807;DHT22;11065;50.786;7.840;2022-07-03T13:19:16;38.00;25.10
21807;DHT22;11065;50.786;7.840;2022-07-03T13:21:44;37.90;25.30
21807;DHT22;11065;50.786;7.840;2022-07-03T13:24:12;37.90;25.40
21807;DHT22;11065;50.786;7.840;2022-07-03T13:26:40;37.90;25.40
21807;DHT22;11065;50.786;7.840;2022-07-03T13:29:07;37.90;25.40
21807;DHT22;11065;50.786;7.840;2022-07-03T13:31:34;37.80;25.40
21807;DHT22;11065;50.786;7.840;2022-07-03T13:34:01;37.90;25.60
21807;DHT22;11065;50.786;7.840;2022-07-03T13:36:31;38.00;25.60
21807;DHT22;11065;50.786;7.840;2022-07-03T13:38:59;38.10;25.70
21807;DHT22;11065;50.786;7.840;2022-07-03T13:41:27;38.30;25.80
21807;DHT22;11065;50.786;7.840;2022-07-03T13:43:54;38.60;25.80
21807;DHT22;11065;50.786;7.840;2022-07-03T13:46:22;38.80;25.90
21807;DHT22;11065;50.786;7.840;2022-07-03T13:48:51;38.90;25.60
21807;DHT22;11065;50.786;7.840;2022-07-03T13:51:19;39.10;25.50
21807;DHT22;11065;50.786;7.840;2022-07-03T13:53:47;39.10;25.40
21807;DHT22;11065;50.786;7.840;2022-07-03T13:56:15;39.10;25.40
21807;DHT22;11065;50.786;7.840;2022-07-03T13:58:43;39.20;25.30
21807;DHT22;11065;50.786;7.840;2022-07-03T14:01:18;39.20;25.30
21807;DHT22;11065;50.786;7.840;2022-07-03T14:03:45;39.10;25.10
21807;DHT22;11065;50.786;7.840;2022-07-03T14:06:14;38.90;25.00
21807;DHT22;11065;50.786;7.840;2022-07-03T14:08:40;38.90;25.30
21807;DHT22;11065;50.786;7.840;2022-07-03T14:11:07;38.80;25.30
21807;DHT22;11065;50.786;7.840;2022-07-03T14:13:34;38.70;25.30
21807;DHT22;11065;50.786;7.840;2022-07-03T14:16:01;38.60;25.20
21807;DHT22;11065;50.786;7.840;2022-07-03T14:18:28;38.30;25.10
21807;DHT22;11065;50.786;7.840;2022-07-03T14:20:55;38.10;25.10
21807;DHT22;11065;50.786;7.840;2022-07-03T14:23:22;37.70;25.00
21807;DHT22;11065;50.786;7.840;2022-07-03T14:25:49;37.40;25.20
21807;DHT22;11065;50.786;7.840;2022-07-03T14:28:16;37.10;25.30
21807;DHT22;11065;50.786;7.840;2022-07-03T14:31:01;36.90;25.40
21807;DHT22;11065;50.786;7.840;2022-07-03T14:33:46;36.70;25.40
21807;DHT22;11065;50.786;7.840;2022-07-03T14:36:16;36.40;25.40
21807;DHT22;11065;50.786;7.840;2022-07-03T14:39:03;36.20;25.50
21807;DHT22;11065;50.786;7.840;2022-07-03T14:41:29;35.80;25.40
21807;DHT22;11065;50.786;7.840;2022-07-03T14:43:56;35.60;25.60
21807;DHT22;11065;50.786;7.840;2022-07-03T14:46:23;35.30;25.80
21807;DHT22;11065;50.786;7.840;2022-07-03T14:48:50;35.10;25.80
21807;DHT22;11065;50.786;7.840;2022-07-03T14:51:19;34.80;25.90
21807;DHT22;11065;50.786;7.840;2022-07-03T14:53:46;34.60;26.00
21807;DHT22;11065;50.786;7.840;2022-07-03T14:56:17;34.40;26.10
21807;DHT22;11065;50.786;7.840;2022-07-03T14:58:46;34.40;26.40
21807;DHT22;11065;50.786;7.840;2022-07-03T15:01:16;34.40;26.60
21807;DHT22;11065;50.786;7.840;2022-07-03T15:03:59;34.50;27.00
21807;DHT22;11065;50.786;7.840;2022-07-03T15:06:28;34.60;27.40
21807;DHT22;11065;50.786;7.840;2022-07-03T15:08:59;34.80;27.20
21807;DHT22;11065;50.786;7.840;2022-07-03T15:11:45;34.90;27.10
21807;DHT22;11065;50.786;7.840;2022-07-03T15:14:32;35.00;27.30
21807;DHT22;11065;50.786;7.840;2022-07-03T15:17:06;35.10;27.20
21807;DHT22;11065;50.786;7.840;2022-07-03T15:19:35;35.20;27.20
21807;DHT22;11065;50.786;7.840;2022-07-03T15:22:04;35.30;27.30
21807;DHT22;11065;50.786;7.840;2022-07-03T15:24:30;35.30;27.40
21807;DHT22;11065;50.786;7.840;2022-07-03T15:26:57;35.40;27.50
21807;DHT22;11065;50.786;7.840;2022-07-03T15:29:24;35.50;27.50
21807;DHT22;11065;50.786;7.840;2022-07-03T15:31:52;35.50;27.50
21807;DHT22;11065;50.786;7.840;2022-07-03T15:34:19;35.60;27.50
21807;DHT22;11065;50.786;7.840;2022-07-03T15:36:51;35.60;27.40
21807;DHT22;11065;50.786;7.840;2022-07-03T15:39:30;35.70;27.60
21807;DHT22;11065;50.786;7.840;2022-07-03T15:42:08;35.70;27.60
21807;DHT22;11065;50.786;7.840;2022-07-03T15:44:45;35.80;27.40
21807;DHT22;11065;50.786;7.840;2022-07-03T15:47:40;35.80;27.60
21807;DHT22;11065;50.786;7.840;2022-07-03T15:50:21;35.70;27.60
21807;DHT22;11065;50.786;7.840;2022-07-03T15:52:48;35.70;27.70
21807;DHT22;11065;50.786;7.840;2022-07-03T15:55:20;35.60;27.60
21807;DHT22;11065;50.786;7.840;2022-07-03T15:57:59;35.50;27.70
21807;DHT22;11065;50.786;7.840;2022-07-03T16:00:34;35.40;28.00
21807;DHT22;11065;50.786;7.840;2022-07-03T16:03:27;35.30;27.90
21807;DHT22;11065;50.786;7.840;2022-07-03T16:05:55;35.10;27.80
21807;DHT22;11065;50.786;7.840;2022-07-03T16:08:23;35.00;27.80
21807;DHT22;11065;50.786;7.840;2022-07-03T16:10:51;34.90;27.90
21807;DHT22;11065;50.786;7.840;2022-07-03T16:13:24;34.80;28.00
21807;DHT22;11065;50.786;7.840;2022-07-03T16:15:51;34.60;28.00
21807;DHT22;11065;50.786;7.840;2022-07-03T16:18:20;34.50;28.00
21807;DHT22;11065;50.786;7.840;2022-07-03T16:20:48;34.40;28.10
21807;DHT22;11065;50.786;7.840;2022-07-03T16:23:15;34.30;28.20
21807;DHT22;11065;50.786;7.840;2022-07-03T16:25:43;34.20;28.30
21807;DHT22;11065;50.786;7.840;2022-07-03T16:28:11;34.00;28.20
21807;DHT22;11065;50.786;7.840;2022-07-03T16:30:49;33.90;28.20
21807;DHT22;11065;50.786;7.840;2022-07-03T16:33:22;33.70;28.30
21807;DHT22;11065;50.786;7.840;2022-07-03T16:36:02;33.60;28.40
21807;DHT22;11065;50.786;7.840;2022-07-03T16:38:52;33.50;28.60
21807;DHT22;11065;50.786;7.840;2022-07-03T16:41:34;33.40;28.60
21807;DHT22;11065;50.786;7.840;2022-07-03T16:44:06;33.30;28.60
21807;DHT22;11065;50.786;7.840;2022-07-03T16:46:40;33.20;28.60
21807;DHT22;11065;50.786;7.840;2022-07-03T16:49:09;33.10;28.80
21807;DHT22;11065;50.786;7.840;2022-07-03T16:51:39;33.00;28.80
21807;DHT22;11065;50.786;7.840;2022-07-03T16:54:09;32.90;29.00
21807;DHT22;11065;50.786;7.840;2022-07-03T16:56:36;32.80;28.80
21807;DHT22;11065;50.786;7.840;2022-07-03T16:59:05;32.80;28.90
21807;DHT22;11065;50.786;7.840;2022-07-03T17:01:35;32.70;29.00
21807;DHT22;11065;50.786;7.840;2022-07-03T17:04:05;32.60;29.00
21807;DHT22;11065;50.786;7.840;2022-07-03T17:06:36;32.60;29.10
21807;DHT22;11065;50.786;7.840;2022-07-03T17:09:04;32.50;29.20
21807;DHT22;11065;50.786;7.840;2022-07-03T17:11:32;32.40;29.10
21807;DHT22;11065;50.786;7.840;2022-07-03T17:13:58;32.30;29.10
21807;DHT22;11065;50.786;7.840;2022-07-03T17:16:27;32.20;29.20
21807;DHT22;11065;50.786;7.840;2022-07-03T17:18:55;32.00;29.20
21807;DHT22;11065;50.786;7.840;2022-07-03T17:21:35;31.90;29.20